Time;durP1;ratioP1;P1;durP2;ratioP2;P2;SDS_P1;SDS_P2;PMS_P1;PMS_P2;Temp;Humidity;BMP_temperature;BMP_pressure;BME280_temperature;BME280_humidity;BME280_pressure;Samples;Min_cycle;Max_cycle;Signal;HPM_P1;HPM_P2
2022/03/01 00:00:43;;;;;;;10.30;6.45;;;-0.90;79.30;;;;;;4953024;28;20438;-74
2022/03/01 00:03:09;;;;;;;11.10;6.60;;;-1.00;79.70;;;;;;4936355;29;20045;-74
2022/03/01 00:05:36;;;;;;;7.22;6.45;;;-1.10;80.30;;;;;;4940748;29;20034;-77
2022/03/01 00:08:02;;;;;;;11.35;5.65;;;-1.10;80.90;;;;;;4935084;29;20036;-76
2022/03/01 00:10:28;;;;;;;8.10;5.95;;;-1.10;81.20;;;;;;4941333;29;20051;-75
2022/03/01 00:12:55;;;;;;;7.70;5.30;;;-1.20;81.60;;;;;;4935726;29;20036;-75
2022/03/01 00:15:22;;;;;;;6.40;5.72;;;-1.30;81.90;;;;;;4935917;29;20043;-77
2022/03/01 00:17:48;;;;;;;7.13;5.82;;;-1.40;82.50;;;;;;4963153;28;20058;-76
2022/03/01 00:20:15;;;;;;;9.75;5.95;;;-1.50;83.30;;;;;;4941585;29;20485;-75
2022/03/01 00:22:41;;;;;;;11.15;6.10;;;-1.60;84.40;;;;;;4903379;29;20053;-75
2022/03/01 00:25:08;;;;;;;6.22;5.60;;;-1.60;84.80;;;;;;4936531;29;20039;-74
2022/03/01 00:27:36;;;;;;;10.55;6.10;;;-1.70;85.50;;;;;;4934641;29;20035;-75
2022/03/01 00:30:03;;;;;;;9.35;5.72;;;-1.70;86.10;;;;;;4961762;28;20044;-75
2022/03/01 00:32:29;;;;;;;11.73;5.68;;;-1.70;86.40;;;;;;4943785;29;20039;-75
2022/03/01 00:34:56;;;;;;;8.80;6.13;;;-1.60;87.00;;;;;;4941179;29;20397;-75
2022/03/01 00:37:22;;;;;;;10.93;6.05;;;-1.60;86.90;;;;;;4934550;29;20488;-74
2022/03/01 00:39:48;;;;;;;7.63;6.35;;;-1.60;86.70;;;;;;4950183;28;20473;-75
2022/03/01 00:42:15;;;;;;;9.88;6.90;;;-1.60;87.90;;;;;;4952805;28;20473;-75
2022/03/01 00:44:41;;;;;;;8.93;6.65;;;-1.60;87.70;;;;;;4935520;29;20038;-75
2022/03/01 00:47:07;;;;;;;9.25;7.03;;;-1.60;88.00;;;;;;4934628;29;20039;-73
2022/03/01 00:49:34;;;;;;;7.65;6.68;;;-1.60;87.30;;;;;;4935668;29;20104;-75
2022/03/01 00:52:00;;;;;;;10.98;5.88;;;-1.70;87.30;;;;;;4949463;28;20035;-76
2022/03/01 00:54:26;;;;;;;10.27;6.45;;;-1.80;87.80;;;;;;4950337;28;20051;-74
2022/03/01 00:56:52;;;;;;;12.43;7.15;;;-1.90;88.60;;;;;;4940667;29;20389;-75
2022/03/01 00:59:19;;;;;;;7.32;6.40;;;-1.90;88.90;;;;;;4949847;28;20058;-73
2022/03/01 01:01:45;;;;;;;7.20;6.43;;;-1.90;89.40;;;;;;4932911;29;20047;-76
2022/03/01 01:04:11;;;;;;;7.35;5.78;;;-2.00;88.90;;;;;;4935931;29;20047;-76
2022/03/01 01:06:38;;;;;;;7.45;5.70;;;-2.00;90.00;;;;;;4933219;29;20039;-75
2022/03/01 01:09:04;;;;;;;7.10;6.05;;;-2.00;90.20;;;;;;4934768;29;20397;-76
2022/03/01 01:11:30;;;;;;;8.45;6.25;;;-2.00;90.50;;;;;;4935351;29;20043;-74
2022/03/01 01:13:57;;;;;;;7.30;6.53;;;-2.00;90.50;;;;;;4933807;29;20041;-74
2022/03/01 01:16:24;;;;;;;8.82;6.25;;;-2.00;90.50;;;;;;4935908;29;20040;-76
2022/03/01 01:18:50;;;;;;;7.30;6.38;;;-2.00;90.80;;;;;;4938775;29;20389;-76
2022/03/01 01:21:16;;;;;;;11.27;6.20;;;-2.00;90.90;;;;;;4937385;29;20046;-74
2022/03/01 01:23:44;;;;;;;11.38;6.70;;;-2.00;91.20;;;;;;4934329;29;20039;-77
2022/03/01 01:26:10;;;;;;;14.18;6.25;;;-2.10;91.30;;;;;;4936245;29;20392;-76
2022/03/01 01:28:37;;;;;;;7.10;5.93;;;-2.10;91.50;;;;;;4950120;28;20401;-76
2022/03/01 01:31:03;;;;;;;9.00;7.68;;;-2.10;92.00;;;;;;4948779;28;20040;-76
2022/03/01 01:33:30;;;;;;;9.52;6.50;;;-2.10;92.10;;;;;;4946932;29;20051;-76
2022/03/01 01:35:56;;;;;;;7.97;6.68;;;-2.20;92.10;;;;;;4934708;29;20370;-76
2022/03/01 01:38:23;;;;;;;7.70;6.05;;;-2.10;91.80;;;;;;4934204;29;20137;-76
2022/03/01 01:40:49;;;;;;;7.43;6.63;;;-2.20;91.60;;;;;;4951476;28;20043;-76
2022/03/01 01:43:15;;;;;;;10.35;5.97;;;-2.30;91.70;;;;;;4940782;29;20044;-75
2022/03/01 01:45:42;;;;;;;7.15;6.35;;;-2.30;91.90;;;;;;4937592;29;20043;-76
2022/03/01 01:48:08;;;;;;;9.23;6.82;;;-2.30;92.30;;;;;;4945467;29;20047;-76
2022/03/01 01:50:35;;;;;;;8.88;7.25;;;-2.30;92.30;;;;;;4935341;29;20028;-76
2022/03/01 01:53:02;;;;;;;11.00;7.30;;;-2.30;92.10;;;;;;4934296;29;20114;-77
2022/03/01 01:55:29;;;;;;;8.63;6.85;;;-2.40;91.60;;;;;;4949262;28;20047;-77
2022/03/01 01:57:56;;;;;;;7.18;6.28;;;-2.40;91.60;;;;;;4933580;29;20508;-77
2022/03/01 02:00:22;;;;;;;10.32;7.30;;;-2.50;92.10;;;;;;4944362;29;20051;-75
2022/03/01 02:02:49;;;;;;;10.40;6.95;;;-2.50;92.30;;;;;;4934697;29;20477;-75
2022/03/01 02:05:15;;;;;;;8.00;6.00;;;-2.60;92.60;;;;;;4940591;29;20044;-77
2022/03/01 02:07:49;;;;;;;7.03;5.75;;;-2.70;93.90;;;;;;4933053;29;20063;-76
2022/03/01 02:10:16;;;;;;;9.40;6.03;;;-2.70;94.70;;;;;;4943878;29;20032;-76
2022/03/01 02:12:43;;;;;;;10.48;6.40;;;-2.70;94.80;;;;;;4934780;29;20046;-78
2022/03/01 02:15:09;;;;;;;8.52;6.47;;;-2.70;95.00;;;;;;4934193;29;20044;-78
2022/03/01 02:17:39;;;;;;;8.13;6.60;;;-2.80;94.80;;;;;;4935551;29;20050;-76
2022/03/01 02:20:24;;;;;;;14.07;7.05;;;-2.80;94.80;;;;;;4941913;29;20039;-76
2022/03/01 02:22:55;;;;;;;8.20;6.95;;;-2.80;95.30;;;;;;4937146;29;20393;-77
2022/03/01 02:25:22;;;;;;;6.60;5.30;;;-2.70;94.70;;;;;;4948321;29;20039;-79
2022/03/01 02:27:49;;;;;;;10.48;7.05;;;-2.60;93.80;;;;;;4945255;29;20330;-75
2022/03/01 02:30:15;;;;;;;9.43;6.43;;;-2.60;93.60;;;;;;4939232;29;20046;-76
2022/03/01 02:32:41;;;;;;;9.43;7.20;;;-2.60;93.30;;;;;;4951779;28;20052;-77
2022/03/01 02:35:11;;;;;;;8.73;6.85;;;-2.70;93.00;;;;;;4941928;29;20333;-77
2022/03/01 02:37:38;;;;;;;10.55;6.45;;;-2.70;92.90;;;;;;4950070;28;20051;-77
2022/03/01 02:40:05;;;;;;;10.63;7.13;;;-2.60;92.90;;;;;;4937590;29;20035;-75
2022/03/01 02:42:31;;;;;;;10.43;7.30;;;-2.60;92.70;;;;;;4937541;29;20044;-77
2022/03/01 02:44:58;;;;;;;14.25;7.78;;;-2.60;92.50;;;;;;4937762;29;20036;-77
2022/03/01 02:47:24;;;;;;;8.88;7.50;;;-2.70;92.80;;;;;;4945766;29;20035;-76
2022/03/01 02:49:50;;;;;;;8.20;7.32;;;-2.80;93.10;;;;;;4939447;29;20504;-76
2022/03/01 02:52:17;;;;;;;10.40;7.63;;;-2.90;93.60;;;;;;4937757;29;20027;-77
2022/03/01 02:54:43;;;;;;;12.52;7.28;;;-2.80;94.20;;;;;;4938123;29;20388;-76
2022/03/01 02:57:09;;;;;;;10.65;8.20;;;-2.90;94.30;;;;;;4936399;29;20043;-76
2022/03/01 02:59:35;;;;;;;8.60;7.15;;;-2.90;94.40;;;;;;4936551;29;20059;-76
2022/03/01 03:02:02;;;;;;;8.10;7.22;;;-2.90;94.50;;;;;;4938468;29;20048;-77
2022/03/01 03:04:28;;;;;;;11.23;7.05;;;-2.90;94.80;;;;;;4936114;29;20396;-76
2022/03/01 03:06:54;;;;;;;11.98;7.85;;;-3.00;94.60;;;;;;4935263;29;20039;-76
2022/03/01 03:09:21;;;;;;;9.68;7.57;;;-3.10;94.80;;;;;;4937499;29;20036;-76
2022/03/01 03:11:48;;;;;;;10.98;7.97;;;-3.10;95.30;;;;;;4936139;29;20043;-77
2022/03/01 03:14:15;;;;;;;10.68;7.75;;;-3.00;95.30;;;;;;4937537;29;20038;-76
2022/03/01 03:16:41;;;;;;;8.73;7.00;;;-3.00;95.60;;;;;;4950807;29;20043;-76
2022/03/01 03:19:10;;;;;;;10.43;6.93;;;-3.00;95.70;;;;;;4937744;29;20043;-76
2022/03/01 03:21:37;;;;;;;11.23;7.00;;;-3.10;96.10;;;;;;4940426;29;20042;-76
2022/03/01 03:24:03;;;;;;;9.43;6.97;;;-3.00;96.60;;;;;;4937042;29;20044;-76
2022/03/01 03:26:29;;;;;;;9.82;6.90;;;-3.00;97.00;;;;;;4940438;29;20046;-76
2022/03/01 03:28:56;;;;;;;17.00;7.90;;;-3.00;97.00;;;;;;4939637;29;20035;-76
2022/03/01 03:31:23;;;;;;;12.57;6.90;;;-3.10;97.20;;;;;;4952651;28;20031;-76
2022/03/01 03:33:49;;;;;;;11.80;7.18;;;-3.30;97.00;;;;;;4936636;29;20039;-76
2022/03/01 03:36:15;;;;;;;12.15;7.03;;;-3.20;98.00;;;;;;4941338;29;20038;-76
2022/03/01 03:38:41;;;;;;;12.25;8.07;;;-3.20;98.50;;;;;;4937030;29;20044;-77
2022/03/01 03:41:07;;;;;;;10.82;7.78;;;-3.30;98.70;;;;;;4948125;29;20499;-76
2022/03/01 03:43:34;;;;;;;9.98;7.60;;;-3.30;99.20;;;;;;4937579;28;20055;-76
2022/03/01 03:46:00;;;;;;;8.45;7.07;;;-3.30;99.20;;;;;;4935568;29;20035;-76
2022/03/01 03:48:27;;;;;;;13.60;7.32;;;-3.30;98.60;;;;;;4937486;29;20389;-76
2022/03/01 03:50:53;;;;;;;10.70;7.32;;;-3.40;99.30;;;;;;4936842;29;20039;-76
2022/03/01 03:53:19;;;;;;;10.73;8.30;;;-3.30;99.50;;;;;;4935083;29;20405;-76
2022/03/01 03:55:46;;;;;;;11.00;7.72;;;-3.20;99.70;;;;;;4950405;28;20475;-77
2022/03/01 03:58:12;;;;;;;9.55;7.10;;;-3.10;99.00;;;;;;4935772;29;20056;-76
2022/03/01 04:00:38;;;;;;;10.65;7.32;;;-3.10;98.20;;;;;;4936704;29;20047;-76
2022/03/01 04:03:04;;;;;;;10.70;7.95;;;-3.00;98.10;;;;;;4935658;29;20051;-76
2022/03/01 04:05:31;;;;;;;14.15;8.35;;;-3.00;97.50;;;;;;4935191;29;20031;-76
2022/03/01 04:07:57;;;;;;;10.38;8.15;;;-3.00;97.30;;;;;;4940103;29;20044;-76
2022/03/01 04:10:23;;;;;;;11.55;8.07;;;-3.00;97.30;;;;;;4935026;29;20038;-76
2022/03/01 04:12:50;;;;;;;10.80;7.05;;;-3.10;97.00;;;;;;4950186;28;20048;-77
2022/03/01 04:15:16;;;;;;;9.57;7.03;;;-3.10;97.50;;;;;;4935581;29;20211;-77
2022/03/01 04:17:43;;;;;;;13.30;8.18;;;-3.10;97.40;;;;;;4937391;29;20047;-77
2022/03/01 04:20:10;;;;;;;12.30;8.57;;;-3.10;96.90;;;;;;4950975;28;20039;-76
2022/03/01 04:22:50;;;;;;;9.18;7.18;;;-3.20;97.00;;;;;;4935947;29;20032;-76
2022/03/01 04:25:17;;;;;;;10.70;8.10;;;-3.30;96.90;;;;;;4935573;29;20496;-76
2022/03/01 04:27:43;;;;;;;11.40;7.85;;;-3.30;97.80;;;;;;4936275;29;20512;-76
2022/03/01 04:30:11;;;;;;;10.50;8.18;;;-3.40;97.70;;;;;;4918543;29;20046;-76
2022/03/01 04:32:38;;;;;;;12.18;8.15;;;-3.40;98.40;;;;;;4936168;29;20051;-76
2022/03/01 04:35:05;;;;;;;18.10;7.68;;;-3.50;98.30;;;;;;4934993;29;20034;-76
2022/03/01 04:37:32;;;;;;;9.45;7.57;;;-3.50;98.50;;;;;;4935314;29;20044;-76
2022/03/01 04:39:58;;;;;;;13.48;7.50;;;-3.50;98.90;;;;;;4951657;28;20043;-76
2022/03/01 04:42:24;;;;;;;9.30;7.72;;;-3.50;99.60;;;;;;4934410;29;20046;-76
2022/03/01 04:44:50;;;;;;;8.52;7.43;;;-3.50;99.80;;;;;;4942267;29;20040;-76
2022/03/01 04:47:17;;;;;;;11.38;7.18;;;-3.50;99.90;;;;;;4954934;28;20043;-77
2022/03/01 04:49:43;;;;;;;14.18;7.97;;;-3.60;99.90;;;;;;4936062;29;20036;-76
2022/03/01 04:52:10;;;;;;;9.32;6.72;;;-3.60;99.90;;;;;;4952392;28;20512;-76
2022/03/01 04:54:36;;;;;;;21.20;8.43;;;-3.70;99.90;;;;;;4938764;29;20036;-76
2022/03/01 04:57:02;;;;;;;17.13;9.48;;;-3.70;99.90;;;;;;4932965;29;20050;-76
2022/03/01 04:59:29;;;;;;;12.63;8.15;;;-3.70;99.90;;;;;;4935398;29;20039;-77
2022/03/01 05:01:55;;;;;;;10.85;8.27;;;-3.70;99.90;;;;;;4935315;29;20070;-77
2022/03/01 05:04:22;;;;;;;15.48;9.35;;;-3.70;99.90;;;;;;4933210;29;20044;-76
2022/03/01 05:06:48;;;;;;;10.10;8.30;;;-3.70;99.90;;;;;;4935560;29;20047;-77
2022/03/01 05:09:14;;;;;;;10.95;9.13;;;-3.70;99.90;;;;;;4936186;29;20054;-76
2022/03/01 05:11:41;;;;;;;11.23;8.00;;;-3.70;99.90;;;;;;4949959;28;20059;-75
2022/03/01 05:14:08;;;;;;;10.30;7.95;;;-3.80;99.90;;;;;;4934779;29;20039;-75
2022/03/01 05:16:34;;;;;;;11.95;9.00;;;-3.80;99.90;;;;;;4949203;28;20043;-76
2022/03/01 05:19:01;;;;;;;17.52;10.02;;;-3.80;99.90;;;;;;4946921;29;20048;-76
2022/03/01 05:21:29;;;;;;;11.48;9.05;;;-3.70;99.90;;;;;;4936395;29;20047;-76
2022/03/01 05:23:55;;;;;;;17.60;9.68;;;-3.70;99.90;;;;;;4949592;28;20047;-76
2022/03/01 05:26:22;;;;;;;19.52;10.88;;;-3.80;99.90;;;;;;4934222;29;20038;-76
2022/03/01 05:28:48;;;;;;;17.02;10.93;;;-3.80;99.90;;;;;;4935066;29;20406;-76
2022/03/01 05:31:15;;;;;;;14.13;9.95;;;-3.80;99.90;;;;;;4937846;29;20036;-76
2022/03/01 05:33:42;;;;;;;12.52;9.48;;;-3.90;99.90;;;;;;4933955;29;20032;-76
2022/03/01 05:36:08;;;;;;;16.35;10.90;;;-4.00;99.90;;;;;;4933971;29;20071;-75
2022/03/01 05:38:34;;;;;;;15.50;11.20;;;-4.00;99.90;;;;;;4935204;29;20035;-76
2022/03/01 05:41:01;;;;;;;13.15;9.23;;;-3.90;99.90;;;;;;4944923;29;20048;-76
2022/03/01 05:43:27;;;;;;;14.82;10.75;;;-3.90;99.90;;;;;;4933520;29;20039;-76
2022/03/01 05:45:53;;;;;;;21.75;11.50;;;-4.10;99.90;;;;;;4933262;29;20036;-76
2022/03/01 05:48:20;;;;;;;13.48;9.90;;;-4.20;99.90;;;;;;4935507;29;20036;-76
2022/03/01 05:50:46;;;;;;;23.08;10.43;;;-4.20;99.90;;;;;;4938350;29;20036;-77
2022/03/01 05:53:12;;;;;;;16.02;10.70;;;-4.10;99.90;;;;;;4937060;29;20044;-76
2022/03/01 05:55:38;;;;;;;16.08;11.55;;;-4.10;99.90;;;;;;4937620;29;20039;-77
2022/03/01 05:58:05;;;;;;;13.50;10.50;;;-4.10;99.90;;;;;;4938428;29;20043;-76
2022/03/01 06:00:31;;;;;;;22.35;10.57;;;-4.10;99.90;;;;;;4956428;28;20047;-76
2022/03/01 06:02:58;;;;;;;18.40;11.75;;;-4.10;99.90;;;;;;4953027;28;20052;-76
2022/03/01 06:05:24;;;;;;;18.95;10.45;;;-4.10;99.90;;;;;;4937940;29;20046;-76
2022/03/01 06:07:50;;;;;;;19.67;11.32;;;-4.20;99.90;;;;;;4938735;29;20040;-76
2022/03/01 06:10:17;;;;;;;22.95;10.40;;;-4.10;99.90;;;;;;4937328;29;20474;-76
2022/03/01 06:12:43;;;;;;;15.93;10.48;;;-4.10;99.90;;;;;;4947186;29;20054;-76
2022/03/01 06:15:09;;;;;;;14.27;9.77;;;-4.20;99.90;;;;;;4947193;29;20039;-77
2022/03/01 06:17:37;;;;;;;21.50;10.98;;;-4.10;99.90;;;;;;4940765;29;20043;-75
2022/03/01 06:20:04;;;;;;;14.10;10.50;;;-4.20;99.90;;;;;;4938371;29;20036;-75
2022/03/01 06:22:30;;;;;;;98.32;24.23;;;-4.20;99.90;;;;;;4940907;29;20043;-75
2022/03/01 06:24:57;;;;;;;167.60;47.70;;;-4.10;99.90;;;;;;4944066;29;20035;-74
2022/03/01 06:27:23;;;;;;;54.00;22.73;;;-4.10;99.90;;;;;;4938509;29;20065;-76
2022/03/01 06:29:49;;;;;;;29.85;13.75;;;-4.10;99.90;;;;;;4938265;29;20040;-75
2022/03/01 06:32:16;;;;;;;48.75;17.98;;;-4.00;99.90;;;;;;4958879;28;20058;-75
2022/03/01 06:34:42;;;;;;;18.40;11.85;;;-4.00;99.90;;;;;;4946863;29;20031;-78
2022/03/01 06:37:13;;;;;;;21.40;12.82;;;-4.00;99.90;;;;;;4948210;29;20050;-77
2022/03/01 06:39:43;;;;;;;20.42;12.82;;;-4.00;99.90;;;;;;4938124;29;20058;-77
2022/03/01 06:42:11;;;;;;;18.75;12.60;;;-4.00;99.90;;;;;;4940701;29;20421;-77
2022/03/01 06:44:38;;;;;;;16.77;12.95;;;-3.90;99.90;;;;;;4941930;29;20058;-76
2022/03/01 06:47:04;;;;;;;15.68;13.32;;;-4.00;99.90;;;;;;4938954;29;20039;-76
2022/03/01 06:49:31;;;;;;;16.88;11.82;;;-3.90;99.90;;;;;;4952892;28;20054;-76
2022/03/01 06:51:57;;;;;;;17.80;11.80;;;-3.80;99.90;;;;;;4946948;29;20024;-77
2022/03/01 06:54:24;;;;;;;15.07;10.98;;;-3.70;99.90;;;;;;4940195;29;20483;-77
2022/03/01 06:56:50;;;;;;;10.50;9.30;;;-3.60;99.90;;;;;;4936533;29;20046;-77
2022/03/01 06:59:16;;;;;;;14.23;9.82;;;-3.40;99.90;;;;;;4956029;28;20047;-77
2022/03/01 07:01:42;;;;;;;143.77;42.05;;;-2.80;99.90;;;;;;4952512;29;20051;-77
2022/03/01 07:04:08;;;;;;;58.72;20.00;;;-1.80;97.60;;;;;;4940701;29;20043;-77
2022/03/01 07:06:35;;;;;;;56.92;21.25;;;-0.80;93.90;;;;;;4936942;29;20035;-77
2022/03/01 07:09:01;;;;;;;35.25;10.30;;;-0.10;90.80;;;;;;4937410;29;20043;-77
2022/03/01 07:11:27;;;;;;;11.23;9.48;;;0.90;81.40;;;;;;4937595;29;20024;-77
2022/03/01 07:13:53;;;;;;;10.27;9.18;;;1.30;75.60;;;;;;4936932;29;20031;-77
2022/03/01 07:16:20;;;;;;;12.77;8.68;;;1.20;74.00;;;;;;4936550;29;20031;-76
2022/03/01 07:18:47;;;;;;;11.55;8.43;;;1.30;74.50;;;;;;4936750;29;20055;-76
2022/03/01 07:21:13;;;;;;;98.85;27.02;;;1.00;73.80;;;;;;4937952;29;20035;-76
2022/03/01 07:23:40;;;;;;;23.17;13.73;;;0.70;74.70;;;;;;4937138;29;20039;-75
2022/03/01 07:26:07;;;;;;;17.10;9.93;;;0.40;76.30;;;;;;4955612;28;20063;-75
2022/03/01 07:28:34;;;;;;;13.70;8.55;;;0.40;77.50;;;;;;4938871;29;20498;-75
2022/03/01 07:31:00;;;;;;;11.80;9.32;;;0.70;75.30;;;;;;4936510;29;20067;-75
2022/03/01 07:33:26;;;;;;;11.38;8.18;;;1.10;72.80;;;;;;4936788;29;20036;-75
2022/03/01 07:35:52;;;;;;;15.13;9.57;;;1.10;71.70;;;;;;4935592;29;20031;-75
2022/03/01 07:38:19;;;;;;;15.07;10.65;;;1.20;71.30;;;;;;4937090;29;20465;-75
2022/03/01 07:40:45;;;;;;;12.25;9.48;;;1.50;69.90;;;;;;4937057;29;20042;-75
2022/03/01 07:43:11;;;;;;;10.57;8.88;;;2.00;69.20;;;;;;4944854;29;20039;-75
2022/03/01 07:45:37;;;;;;;9.68;8.73;;;2.30;66.90;;;;;;4949261;29;20035;-75
2022/03/01 07:48:04;;;;;;;11.27;9.68;;;2.50;66.80;;;;;;4936697;29;20397;-75
2022/03/01 07:50:31;;;;;;;11.82;9.23;;;3.00;65.20;;;;;;4935081;29;20043;-75
2022/03/01 07:52:58;;;;;;;9.60;8.52;;;3.20;63.30;;;;;;4950113;28;20039;-75
2022/03/01 07:55:24;;;;;;;8.73;7.85;;;3.20;62.50;;;;;;4934299;29;20043;-74
2022/03/01 07:57:51;;;;;;;8.45;7.63;;;3.50;61.60;;;;;;4936493;29;20060;-75
2022/03/01 08:00:19;;;;;;;17.23;10.35;;;3.90;60.20;;;;;;4936404;29;20048;-75
2022/03/01 08:02:45;;;;;;;9.13;8.30;;;3.90;58.40;;;;;;4936094;29;20036;-76
2022/03/01 08:05:12;;;;;;;10.65;9.55;;;4.30;58.40;;;;;;4935183;29;20059;-76
2022/03/01 08:07:38;;;;;;;10.52;9.05;;;4.60;57.00;;;;;;4938920;29;20363;-75
2022/03/01 08:10:05;;;;;;;10.15;8.57;;;4.90;57.10;;;;;;4936085;29;20039;-75
2022/03/01 08:12:31;;;;;;;28.13;14.43;;;5.20;56.30;;;;;;4936384;29;20032;-76
2022/03/01 08:14:57;;;;;;;13.07;10.18;;;5.40;55.10;;;;;;4934632;29;20036;-75
2022/03/01 08:17:23;;;;;;;12.23;9.80;;;5.80;54.50;;;;;;4936807;29;20035;-76
2022/03/01 08:19:50;;;;;;;33.22;14.05;;;5.90;53.90;;;;;;4936099;29;20038;-76
2022/03/01 08:22:16;;;;;;;10.20;9.15;;;5.50;54.30;;;;;;4938049;29;20035;-76
2022/03/01 08:24:42;;;;;;;55.63;21.20;;;5.30;54.80;;;;;;4945100;29;20040;-76
2022/03/01 08:27:08;;;;;;;11.52;9.10;;;5.10;54.90;;;;;;4935726;29;20050;-75
2022/03/01 08:29:35;;;;;;;10.07;8.73;;;5.70;53.70;;;;;;4944825;29;20032;-76
2022/03/01 08:32:01;;;;;;;32.35;12.55;;;6.40;53.60;;;;;;4935218;29;20374;-76
2022/03/01 08:34:27;;;;;;;11.18;9.30;;;7.30;50.50;;;;;;4935956;29;20040;-76
2022/03/01 08:36:53;;;;;;;10.18;9.20;;;8.00;49.10;;;;;;4935118;29;20108;-76
2022/03/01 08:39:20;;;;;;;11.13;9.52;;;7.50;51.10;;;;;;4935970;29;20051;-76
2022/03/01 08:41:46;;;;;;;18.38;9.05;;;6.80;52.30;;;;;;4936080;29;20039;-76
2022/03/01 08:44:12;;;;;;;9.85;8.85;;;7.10;51.50;;;;;;4935642;29;20039;-75
2022/03/01 08:46:39;;;;;;;10.85;8.40;;;5.90;52.70;;;;;;4940592;29;20050;-76
2022/03/01 08:49:06;;;;;;;11.85;10.07;;;6.10;53.50;;;;;;4935249;29;20050;-76
2022/03/01 08:51:33;;;;;;;11.40;9.73;;;6.20;52.60;;;;;;4955717;28;20051;-76
2022/03/01 08:53:59;;;;;;;10.23;9.32;;;7.10;52.00;;;;;;4935008;29;20031;-76
2022/03/01 08:56:25;;;;;;;11.68;9.90;;;7.40;51.20;;;;;;4934377;29;20035;-76
2022/03/01 08:58:52;;;;;;;12.98;8.93;;;7.20;52.50;;;;;;4935221;29;20042;-76
2022/03/01 09:01:18;;;;;;;19.27;8.88;;;8.20;50.70;;;;;;4935442;29;20051;-76
2022/03/01 09:03:45;;;;;;;10.43;8.50;;;8.30;50.00;;;;;;4935245;29;20036;-75
2022/03/01 09:06:11;;;;;;;15.63;8.57;;;7.80;50.10;;;;;;4934720;29;20032;-75
2022/03/01 09:08:40;;;;;;;10.88;9.75;;;7.90;48.90;;;;;;4936602;29;20058;-76
2022/03/01 09:11:10;;;;;;;9.23;8.15;;;8.50;50.60;;;;;;4943234;29;20039;-76
2022/03/01 09:13:38;;;;;;;11.60;9.43;;;9.00;48.70;;;;;;4935650;29;20032;-76
2022/03/01 09:16:05;;;;;;;9.45;8.55;;;9.60;47.30;;;;;;4941012;29;20038;-76
2022/03/01 09:18:32;;;;;;;10.48;9.20;;;9.70;46.60;;;;;;4944209;28;20062;-75
2022/03/01 09:20:58;;;;;;;10.27;8.70;;;9.90;45.50;;;;;;4934400;29;20413;-75
2022/03/01 09:23:24;;;;;;;8.20;7.35;;;9.90;45.00;;;;;;4936057;29;20043;-76
2022/03/01 09:25:50;;;;;;;9.02;7.63;;;9.30;45.40;;;;;;4933530;29;20649;-76
2022/03/01 09:28:17;;;;;;;26.25;9.50;;;8.20;46.40;;;;;;4958180;28;20051;-75
2022/03/01 09:30:44;;;;;;;9.63;8.65;;;9.30;46.00;;;;;;4935524;29;20473;-76
2022/03/01 09:33:10;;;;;;;14.52;13.02;;;10.30;44.30;;;;;;4934676;29;20035;-76
2022/03/01 09:35:36;;;;;;;10.30;9.30;;;10.40;44.30;;;;;;4933916;29;20032;-76
2022/03/01 09:38:03;;;;;;;11.40;8.80;;;10.30;44.90;;;;;;4934564;29;20043;-76
2022/03/01 09:40:29;;;;;;;9.38;7.93;;;11.10;43.50;;;;;;4934474;29;20038;-76
2022/03/01 09:42:55;;;;;;;11.68;9.13;;;11.00;42.40;;;;;;4934578;29;20036;-76
2022/03/01 09:45:22;;;;;;;8.90;7.53;;;11.60;42.30;;;;;;4933967;29;20393;-75
2022/03/01 09:47:49;;;;;;;9.98;8.38;;;11.30;40.30;;;;;;4934498;29;20035;-77
2022/03/01 09:50:15;;;;;;;9.40;8.43;;;10.70;40.40;;;;;;4934026;29;20032;-76
2022/03/01 09:52:42;;;;;;;10.70;8.05;;;10.20;41.40;;;;;;4935265;29;20027;-76
2022/03/01 09:55:09;;;;;;;10.68;7.25;;;9.40;41.60;;;;;;4933639;29;20492;-76
2022/03/01 09:57:37;;;;;;;8.13;7.13;;;8.50;41.80;;;;;;4934569;29;20039;-75
2022/03/01 10:00:04;;;;;;;8.80;7.90;;;8.10;43.00;;;;;;4935609;29;20056;-75
2022/03/01 10:02:39;;;;;;;8.23;7.18;;;7.80;43.50;;;;;;4935084;29;20039;-76
2022/03/01 10:05:06;;;;;;;16.42;9.73;;;6.90;42.90;;;;;;4933349;29;20035;-74
2022/03/01 10:07:32;;;;;;;11.77;9.23;;;6.70;43.60;;;;;;4934213;29;20035;-74
2022/03/01 10:10:08;;;;;;;8.90;7.50;;;6.70;44.00;;;;;;4933870;29;20385;-75
2022/03/01 10:12:36;;;;;;;8.57;7.60;;;6.60;44.10;;;;;;4934997;29;20043;-75
2022/03/01 10:15:09;;;;;;;14.40;9.75;;;6.60;44.50;;;;;;4933515;29;20481;-75
2022/03/01 10:17:45;;;;;;;9.98;8.35;;;6.50;44.10;;;;;;4935091;29;20042;-75
2022/03/01 10:20:14;;;;;;;11.30;8.75;;;6.60;44.90;;;;;;4933929;29;20070;-74
2022/03/01 10:22:45;;;;;;;8.40;7.60;;;6.20;44.40;;;;;;4934761;29;20035;-74
2022/03/01 10:25:13;;;;;;;8.55;7.55;;;6.30;44.40;;;;;;4954609;28;20044;-75
2022/03/01 10:27:40;;;;;;;9.75;8.75;;;6.30;44.20;;;;;;4934405;29;20036;-75
2022/03/01 10:30:07;;;;;;;8.73;7.88;;;6.40;44.40;;;;;;4943047;29;20070;-74
2022/03/01 10:32:34;;;;;;;15.10;8.05;;;6.50;44.00;;;;;;4935809;29;20488;-74
2022/03/01 10:35:07;;;;;;;9.40;7.80;;;6.70;43.90;;;;;;4933024;29;20042;-74
2022/03/01 10:37:35;;;;;;;9.35;8.35;;;7.00;43.60;;;;;;4935248;29;20035;-75
2022/03/01 10:40:14;;;;;;;8.40;7.45;;;7.00;43.50;;;;;;4938087;29;20047;-75
2022/03/01 10:42:41;;;;;;;9.00;8.10;;;6.90;44.30;;;;;;4952821;28;20370;-74
2022/03/01 10:45:09;;;;;;;8.73;7.90;;;6.80;43.70;;;;;;4935909;29;20055;-74
2022/03/01 10:47:37;;;;;;;8.85;7.95;;;6.80;44.10;;;;;;4938127;29;20469;-74
2022/03/01 10:50:09;;;;;;;10.02;7.80;;;6.60;44.20;;;;;;4937148;29;20062;-75
2022/03/01 10:52:39;;;;;;;9.35;8.45;;;6.50;43.70;;;;;;4938041;29;20040;-75
2022/03/01 10:55:26;;;;;;;9.20;7.57;;;6.40;44.00;;;;;;4936696;29;20024;-75
2022/03/01 10:58:01;;;;;;;8.10;7.28;;;6.60;44.80;;;;;;4949427;29;20043;-75
2022/03/01 11:00:27;;;;;;;8.40;7.47;;;6.80;44.30;;;;;;4938244;29;20051;-75
2022/03/01 11:02:54;;;;;;;8.43;7.53;;;7.00;44.30;;;;;;4943748;29;20485;-75
2022/03/01 11:05:20;;;;;;;10.55;7.60;;;7.20;43.70;;;;;;4936787;29;20044;-75
2022/03/01 11:07:49;;;;;;;8.15;7.30;;;7.20;42.50;;;;;;4937721;29;20043;-75
2022/03/01 11:10:16;;;;;;;8.05;7.22;;;7.40;42.80;;;;;;4937536;29;20385;-75
2022/03/01 11:12:45;;;;;;;8.82;7.25;;;7.40;43.30;;;;;;4937721;29;20035;-75
2022/03/01 11:15:39;;;;;;;8.77;7.88;;;7.60;43.40;;;;;;4937974;29;20040;-75
2022/03/01 11:18:43;;;;;;;8.90;7.03;;;7.80;42.80;;;;;;4937164;29;20044;-75
2022/03/01 11:21:12;;;;;;;8.77;7.97;;;7.40;43.70;;;;;;4936644;29;20256;-75
2022/03/01 11:23:41;;;;;;;8.98;8.07;;;7.80;43.60;;;;;;4937320;29;20043;-75
2022/03/01 11:26:13;;;;;;;9.95;7.10;;;8.10;42.70;;;;;;4935587;29;20469;-75
2022/03/01 11:28:49;;;;;;;7.90;6.93;;;8.10;41.80;;;;;;4937430;29;20032;-75
2022/03/01 11:31:30;;;;;;;8.27;6.85;;;8.20;41.90;;;;;;4937028;29;20039;-75
2022/03/01 11:34:10;;;;;;;10.38;7.22;;;8.00;41.20;;;;;;4946859;29;20050;-75
2022/03/01 11:36:37;;;;;;;8.68;7.63;;;8.50;42.30;;;;;;4936478;29;20042;-75
2022/03/01 11:39:18;;;;;;;6.45;5.80;;;8.20;41.50;;;;;;4942716;29;20046;-76
2022/03/01 11:41:48;;;;;;;;;;;8.30;41.60;;;;;;4937507;29;20047;-75
2022/03/01 11:44:23;;;;;;;5.15;4.65;;;8.30;41.60;;;;;;4947394;29;19917;-75
2022/03/01 11:46:50;;;;;;;10.73;8.88;;;8.30;42.20;;;;;;4936296;29;20031;-76
2022/03/01 11:49:21;;;;;;;10.63;7.63;;;8.30;41.80;;;;;;4936253;29;20042;-75
2022/03/01 11:51:50;;;;;;;7.68;6.90;;;8.10;41.10;;;;;;4938327;29;20044;-75
2022/03/01 11:54:26;;;;;;;6.88;6.20;;;8.00;41.30;;;;;;4939971;29;20034;-75
2022/03/01 11:56:55;;;;;;;8.20;7.22;;;8.00;39.90;;;;;;4936223;29;20024;-75
2022/03/01 11:59:22;;;;;;;8.00;7.10;;;7.80;40.30;;;;;;4936055;29;20405;-74
2022/03/01 12:01:49;;;;;;;8.35;7.20;;;7.70;39.50;;;;;;4944271;29;20493;-74
2022/03/01 12:04:21;;;;;;;7.07;6.35;;;7.50;39.80;;;;;;4936559;29;20039;-75
2022/03/01 12:06:54;;;;;;;7.00;5.82;;;7.60;40.70;;;;;;4930811;29;20059;-75
2022/03/01 12:09:23;;;;;;;7.15;5.93;;;7.80;39.50;;;;;;4949760;29;20043;-75
2022/03/01 12:11:50;;;;;;;6.80;6.10;;;7.70;39.30;;;;;;4936208;29;20032;-75
2022/03/01 12:14:22;;;;;;;7.10;6.40;;;7.70;39.80;;;;;;4936159;29;20035;-75
2022/03/01 12:16:49;;;;;;;6.22;5.70;;;7.90;40.20;;;;;;4935096;29;20051;-75
2022/03/01 12:19:18;;;;;;;7.97;7.18;;;8.00;40.90;;;;;;4947680;29;20046;-75
2022/03/01 12:21:58;;;;;;;14.05;8.45;;;7.90;41.90;;;;;;4947303;29;20031;-75
2022/03/01 12:24:29;;;;;;;7.82;7.03;;;7.70;42.30;;;;;;4935930;29;20047;-75
2022/03/01 12:26:58;;;;;;;7.68;6.90;;;7.70;43.00;;;;;;4930511;29;20642;-76
2022/03/01 12:29:26;;;;;;;10.27;7.10;;;7.70;42.80;;;;;;4949927;29;20044;-75
2022/03/01 12:31:56;;;;;;;9.18;8.18;;;8.00;42.40;;;;;;4944675;29;20038;-75
2022/03/01 12:34:28;;;;;;;7.60;6.85;;;8.00;42.40;;;;;;4940000;29;20038;-75
2022/03/01 12:36:57;;;;;;;8.25;6.88;;;8.30;42.10;;;;;;4943376;29;20032;-75
2022/03/01 12:39:24;;;;;;;7.55;6.82;;;8.40;42.60;;;;;;4935568;29;20043;-75
2022/03/01 12:41:51;;;;;;;11.85;10.73;;;8.60;42.50;;;;;;4935746;29;20047;-75
2022/03/01 12:44:20;;;;;;;13.13;11.88;;;8.80;41.40;;;;;;4935495;29;20031;-75